Pringle, SD (57773)

12:33 AM MDT on August 05, 2015 (GMT -0600)
RAWS | | Change Station
CLOSE
Current Station
Personal Weather Station
Location: Pringle, SD
Elevation: 4110 ft
Nearby Weather Stations

Elev 4110 ft 43.56 °N, 103.49 °W | Updated 1 hour ago

Mostly Cloudy
Mostly Cloudy
68.0 °F
Feels Like 68.0 °F
N
0.0
Wind Variable Wind from North
Gusts 5.0 mph

Today
High -- | Low -- °F
--% Chance of Precip.
Yesterday
High -- | Low -- °F
Precip. -- in
5:47 AM 8:12 PM
Waning Gibbous, 70% visible
Pressure 29.96 in
Visibility 10.0 miles
Clouds Overcast 9500 ft
Dew Point 56.0 °F
Humidity 66%
Rainfall in
Snow Depth Not available.
UV 0 out of 12
Pollen 6.40 out of 12
Air Quality Not available.
Flu Activity Not available.
METAR KCUT 050553Z AUTO 04003KT 10SM OVC095 17/12 A3014 RMK AO2 SLP143 T01670122 10228 20156 52006

More Conditions Fewer Conditions

Pressure 29.96 in
Visibility 10.0 miles
Clouds Overcast 9500 ft
Dew Point 56.0 °F
Humidity 66%
Rainfall in
Snow Depth Not available.
UV 0 out of 12
Pollen 6.40 out of 12
Air Quality Not available.
Flu Activity Not available.
METAR KCUT 050553Z AUTO 04003KT 10SM OVC095 17/12 A3014 RMK AO2 SLP143 T01670122 10228 20156 52006

More Conditions Fewer Conditions

10-Day Weather Forecast

×

Almanac

Astronomy

Aug. 05, 2015 Rise Set
Actual Time
Civil Twilight
Nautical Twilight
Astronomical Twilight
Moon
Length of Visible Light
Length of Day
Tomorrow will be .
, % of the Moon is Illuminated

Today's Extremes

State Highs State Lows

Community

WunderPhotos

Upload Photos

1,844,105 photos uploaded!

WunderBlogs® & News

Nearby

Air Quality

  Air Quality AQ Index Pollutant
Not available.

Snow Depth

Station Depth Elevation

Earthquake Activity

City Distance Mag. Time & Date
Minimum magnitude displayed is 2.5.

Coastal Water Temperatures

Place Temperature

Stations

Nearby Weather Stations

Station Location Temp. Windchill Dew Point Humidity Wind Precip. Elev Updated Type